createdAt,value
2019-01-23T00:03:50.497Z,56.00
2019-01-23T00:08:55.398Z,56.10
2019-01-23T00:14:00.277Z,56.10
2019-01-23T00:19:05.217Z,56.10
2019-01-23T00:24:10.038Z,56.10
2019-01-23T00:29:15.166Z,56.20
2019-01-23T00:34:20.057Z,56.10
2019-01-23T00:39:24.855Z,56.00
2019-01-23T00:44:29.958Z,56.00
2019-01-23T00:49:34.880Z,56.00
2019-01-23T00:54:39.729Z,56.00
2019-01-23T00:59:44.774Z,56.10
2019-01-23T01:04:49.927Z,56.00
2019-01-23T01:09:54.730Z,56.10
2019-01-23T01:14:59.854Z,56.10
2019-01-23T01:20:06.683Z,56.10
2019-01-23T01:25:13.869Z,56.00
2019-01-23T01:30:21.027Z,56.00
2019-01-23T01:35:26.097Z,56.00
2019-01-23T01:40:31.277Z,56.10
2019-01-23T01:45:36.244Z,56.10
2019-01-23T01:50:42.065Z,56.20
2019-01-23T01:55:46.869Z,56.30
2019-01-23T02:00:51.776Z,56.30
2019-01-23T02:05:56.939Z,56.20
2019-01-23T02:11:01.765Z,56.20
2019-01-23T02:16:06.722Z,56.20
2019-01-23T02:21:12.023Z,56.20
2019-01-23T02:26:17.042Z,56.20
2019-01-23T02:31:21.880Z,56.10
2019-01-23T02:36:26.703Z,56.20
2019-01-23T02:41:31.602Z,56.20
2019-01-23T02:46:36.424Z,56.30
2019-01-23T02:51:41.585Z,56.30
2019-01-23T02:56:46.665Z,56.30
2019-01-23T03:01:51.750Z,56.20
2019-01-23T03:06:56.697Z,56.20
2019-01-23T03:12:02.038Z,56.10
2019-01-23T03:17:07.064Z,56.10
2019-01-23T03:22:11.918Z,56.10
2019-01-23T03:27:16.870Z,56.20
2019-01-23T03:32:22.035Z,56.20
2019-01-23T03:37:27.119Z,56.20
2019-01-23T03:42:32.378Z,56.20
2019-01-23T03:47:37.625Z,56.30
2019-01-23T03:52:42.625Z,56.30
2019-01-23T03:57:47.601Z,56.20
2019-01-23T04:02:53.544Z,56.30
2019-01-23T04:07:58.407Z,56.30
2019-01-23T04:13:03.183Z,56.30
2019-01-23T04:18:08.082Z,56.20
2019-01-23T04:23:12.907Z,56.20
2019-01-23T04:28:17.958Z,56.20
2019-01-23T04:33:22.722Z,56.10
2019-01-23T04:38:27.665Z,56.10
2019-01-23T04:43:32.879Z,56.10
2019-01-23T04:48:38.104Z,56.20
2019-01-23T04:53:45.014Z,56.20
2019-01-23T04:58:49.898Z,56.10
2019-01-23T05:03:55.411Z,55.90
2019-01-23T05:09:00.656Z,55.90
2019-01-23T05:14:07.237Z,56.00
2019-01-23T05:19:12.156Z,56.10
2019-01-23T05:24:17.050Z,56.10
2019-01-23T05:29:21.841Z,56.10
2019-01-23T05:34:26.663Z,55.90
2019-01-23T05:39:31.505Z,56.00
2019-01-23T05:44:36.361Z,55.90
2019-01-23T05:49:41.441Z,56.00
2019-01-23T05:54:46.538Z,56.00
2019-01-23T05:59:51.322Z,56.20
2019-01-23T06:04:56.521Z,56.30
2019-01-23T06:10:01.519Z,56.30
2019-01-23T06:15:07.112Z,56.10
2019-01-23T06:20:14.318Z,56.00
2019-01-23T06:25:19.569Z,55.80
2019-01-23T06:30:26.399Z,55.90
2019-01-23T06:35:31.182Z,56.00
2019-01-23T06:40:36.758Z,56.10
2019-01-23T06:45:41.952Z,56.00
2019-01-23T06:50:46.771Z,56.00
2019-01-23T06:55:51.518Z,55.90
2019-01-23T07:00:56.601Z,55.80
2019-01-23T07:06:01.733Z,55.90
2019-01-23T07:11:06.710Z,55.90
2019-01-23T07:16:11.521Z,56.00
2019-01-23T07:21:16.836Z,56.10
2019-01-23T07:26:22.138Z,56.00
2019-01-23T07:31:27.376Z,56.10
2019-01-23T07:36:32.347Z,56.10
2019-01-23T07:41:37.423Z,56.10
2019-01-23T07:46:43.010Z,56.10
2019-01-23T07:51:47.811Z,56.20
2019-01-23T07:56:52.917Z,56.10
2019-01-23T08:01:58.179Z,56.30
2019-01-23T08:07:03.146Z,56.30
2019-01-23T08:12:10.812Z,56.30
2019-01-23T08:17:15.001Z,56.30
2019-01-23T08:22:19.768Z,56.30
2019-01-23T08:27:24.930Z,56.40
2019-01-23T08:32:30.200Z,56.40
2019-01-23T08:37:35.271Z,56.30
2019-01-23T08:42:40.146Z,56.40
2019-01-23T08:47:45.418Z,56.30
2019-01-23T08:52:50.687Z,56.30
2019-01-23T08:57:57.177Z,56.30
2019-01-23T09:03:02.106Z,56.30
2019-01-23T09:08:09.270Z,56.40
2019-01-23T09:13:14.245Z,56.30
2019-01-23T09:18:19.084Z,56.30
2019-01-23T09:23:24.108Z,56.30
2019-01-23T09:28:30.020Z,56.40
2019-01-23T09:33:49.463Z,56.90
2019-01-23T09:39:20.062Z,56.30
2019-01-23T09:45:12.889Z,57.00
2019-01-23T09:50:57.396Z,56.30
2019-01-23T09:56:03.382Z,56.30
2019-01-23T10:01:08.553Z,56.40
2019-01-23T10:06:16.625Z,56.40
2019-01-23T10:11:21.374Z,56.20
2019-01-23T10:16:26.247Z,55.10
2019-01-23T10:21:31.177Z,55.40
2019-01-23T10:26:36.072Z,55.50
2019-01-23T10:31:41.009Z,55.80
2019-01-23T10:36:45.894Z,56.00
2019-01-23T10:41:50.855Z,56.00
2019-01-23T10:46:55.677Z,55.60
2019-01-23T10:52:00.459Z,55.90
2019-01-23T10:57:05.686Z,55.60
2019-01-23T11:02:10.670Z,55.60
2019-01-23T11:07:16.552Z,55.70
2019-01-23T11:12:25.828Z,55.90
2019-01-23T11:17:39.830Z,55.50
2019-01-23T11:22:48.240Z,55.90
2019-01-23T11:27:53.504Z,56.00
2019-01-23T11:33:00.525Z,55.80
2019-01-23T11:38:10.397Z,55.60
2019-01-23T11:43:15.349Z,55.40
2019-01-23T11:48:22.145Z,55.70
2019-01-23T11:53:27.360Z,55.90
2019-01-23T11:58:35.350Z,55.80
2019-01-23T12:03:41.254Z,55.40
2019-01-23T12:08:46.089Z,55.00
2019-01-23T12:13:51.407Z,55.30
2019-01-23T12:18:59.577Z,55.30
2019-01-23T12:24:04.583Z,54.70
2019-01-23T12:29:09.668Z,55.00
2019-01-23T12:34:14.647Z,55.20
2019-01-23T12:39:19.938Z,55.40
2019-01-23T12:45:12.199Z,55.40
2019-01-23T12:50:51.476Z,55.40
2019-01-23T12:56:14.599Z,55.40
2019-01-23T13:01:47.160Z,55.70
2019-01-23T13:07:01.148Z,55.80
2019-01-23T13:12:05.540Z,56.00
2019-01-23T13:17:18.629Z,55.70
2019-01-23T13:22:26.726Z,55.80
2019-01-23T13:27:57.303Z,55.70
2019-01-23T13:33:02.352Z,55.70
2019-01-23T13:38:15.059Z,55.70
2019-01-23T13:43:22.432Z,55.30
2019-01-23T13:48:30.839Z,55.20
2019-01-23T13:53:35.834Z,55.10
2019-01-23T13:58:42.204Z,55.20
2019-01-23T14:03:47.249Z,55.00
2019-01-23T14:08:52.053Z,55.30
2019-01-23T14:13:57.064Z,55.30
2019-01-23T14:19:03.736Z,55.30
2019-01-23T14:24:11.121Z,55.40
2019-01-23T14:29:16.047Z,55.50
2019-01-23T14:34:20.873Z,55.60
2019-01-23T14:39:25.997Z,55.70
2019-01-23T14:44:31.250Z,55.70
2019-01-23T14:49:36.040Z,55.70
2019-01-23T14:54:40.815Z,55.80
2019-01-23T14:59:46.058Z,55.80
2019-01-23T15:04:51.318Z,55.70
2019-01-23T15:09:59.333Z,55.70
2019-01-23T15:15:04.870Z,55.50
2019-01-23T15:20:25.559Z,55.50
2019-01-23T15:25:33.644Z,55.40
2019-01-23T15:30:44.611Z,55.50
2019-01-23T15:35:52.235Z,55.70
2019-01-23T15:40:56.357Z,55.80
2019-01-23T15:46:01.319Z,55.70
2019-01-23T15:51:07.154Z,55.70
2019-01-23T15:56:12.032Z,55.80
2019-01-23T16:01:17.234Z,55.70
2019-01-23T16:06:25.833Z,55.70
2019-01-23T16:11:31.133Z,55.80
2019-01-23T16:16:36.547Z,55.80
2019-01-23T16:21:45.563Z,55.80
2019-01-23T16:26:50.582Z,55.80
2019-01-23T16:31:55.633Z,55.80
2019-01-23T16:37:00.859Z,55.80
2019-01-23T16:42:06.176Z,55.70
2019-01-23T16:47:11.276Z,55.70
2019-01-23T16:52:16.667Z,55.80
2019-01-23T16:57:22.889Z,55.80
2019-01-23T17:02:28.110Z,55.70
2019-01-23T17:07:33.518Z,55.80
2019-01-23T17:12:38.822Z,55.80
2019-01-23T17:17:44.174Z,55.80
2019-01-23T17:22:54.723Z,55.70
2019-01-23T17:28:00.091Z,55.80
2019-01-23T17:33:05.467Z,55.80
2019-01-23T17:38:10.757Z,55.80
2019-01-23T17:43:15.889Z,55.80
2019-01-23T17:48:21.156Z,55.70
2019-01-23T17:53:26.153Z,55.60
2019-01-23T17:58:31.173Z,55.70
2019-01-23T18:03:36.230Z,55.70
2019-01-23T18:08:41.633Z,55.70
2019-01-23T18:13:46.552Z,55.70
2019-01-23T18:18:54.523Z,55.70
2019-01-23T18:23:59.565Z,55.70
2019-01-23T18:29:30.458Z,55.60
2019-01-23T18:35:15.214Z,55.60
2019-01-23T18:40:45.081Z,55.60
2019-01-23T18:46:24.173Z,55.40
2019-01-23T18:51:52.054Z,55.50
2019-01-23T18:56:56.909Z,55.40
2019-01-23T19:02:02.168Z,55.60
2019-01-23T19:07:06.978Z,55.60
2019-01-23T19:12:12.143Z,55.50
2019-01-23T19:17:16.988Z,55.50
2019-01-23T19:22:22.089Z,55.50
2019-01-23T19:27:28.188Z,55.40
2019-01-23T19:33:48.323Z,55.50
2019-01-23T19:38:55.815Z,55.50
2019-01-23T19:44:04.168Z,55.50
2019-01-23T19:49:10.236Z,55.40
2019-01-23T19:54:14.979Z,55.40
2019-01-23T21:30:49.279Z,55.60
2019-01-23T21:59:15.317Z,54.10
